createdAt,value
2022-10-22T00:08:36.826Z,13.76
2022-10-22T00:28:36.793Z,13.78
2022-10-22T00:48:36.642Z,13.76
2022-10-22T01:08:36.793Z,13.76
2022-10-22T01:28:36.583Z,13.71
2022-10-22T01:48:36.698Z,13.75
2022-10-22T02:08:36.685Z,13.76
2022-10-22T02:28:36.518Z,13.72
2022-10-22T02:48:36.600Z,13.73
2022-10-22T03:08:36.548Z,13.72
2022-10-22T03:28:36.523Z,13.71
2022-10-22T03:48:36.409Z,13.68
2022-10-22T04:08:36.474Z,13.54
2022-10-22T04:28:36.361Z,13.41
2022-10-22T04:48:36.342Z,13.26
2022-10-22T05:08:36.321Z,13.18
2022-10-22T05:28:36.348Z,13.11
2022-10-22T05:48:36.262Z,13.17
2022-10-22T06:08:36.253Z,13.11
2022-10-22T06:28:36.230Z,13.06
2022-10-22T06:48:36.288Z,13.00
2022-10-22T07:08:36.293Z,12.96
2022-10-22T07:28:36.294Z,13.03
2022-10-22T07:48:36.222Z,13.09
2022-10-22T08:08:36.134Z,13.25
2022-10-22T08:28:36.176Z,13.39
2022-10-22T08:48:36.152Z,13.50
2022-10-22T09:08:36.202Z,13.58
2022-10-22T09:28:36.116Z,13.70
2022-10-22T09:48:36.126Z,13.85
2022-10-22T10:08:36.041Z,13.97
2022-10-22T10:28:36.068Z,14.29
2022-10-22T10:48:35.902Z,14.56
2022-10-22T11:08:35.883Z,15.29
2022-10-22T11:28:35.847Z,15.58
2022-10-22T11:48:35.845Z,15.54
2022-10-22T12:08:35.809Z,15.40
2022-10-22T12:28:35.784Z,15.92
2022-10-22T12:48:35.755Z,16.34
2022-10-22T13:08:35.821Z,16.53
2022-10-22T13:28:35.702Z,16.55
2022-10-22T13:48:35.661Z,16.54
2022-10-22T14:08:35.628Z,16.27
2022-10-22T14:28:35.611Z,16.09
2022-10-22T14:48:35.617Z,15.92
2022-10-22T15:08:35.666Z,15.73
2022-10-22T15:28:35.587Z,15.49
2022-10-22T15:48:35.598Z,15.25
2022-10-22T16:08:35.488Z,15.00
2022-10-22T16:28:35.451Z,14.74
2022-10-22T16:48:35.487Z,14.43
2022-10-22T17:08:35.436Z,14.14
2022-10-22T17:28:35.376Z,13.81
2022-10-22T17:48:35.349Z,13.62
2022-10-22T18:08:35.343Z,13.47
2022-10-22T18:28:35.312Z,13.10
2022-10-22T18:48:35.327Z,12.78
2022-10-22T19:08:35.258Z,12.80
2022-10-22T19:28:35.248Z,12.70
2022-10-22T19:48:35.239Z,12.66
2022-10-22T20:08:35.214Z,12.58
2022-10-22T20:28:35.167Z,12.28
2022-10-22T20:48:35.274Z,12.05
2022-10-22T21:08:35.218Z,12.11
2022-10-22T21:28:35.128Z,12.17
2022-10-22T21:48:35.067Z,12.14
2022-10-22T22:08:35.081Z,12.10
2022-10-22T22:28:35.040Z,11.84
2022-10-22T22:48:35.015Z,11.91
2022-10-22T23:08:34.982Z,11.88
2022-10-22T23:28:34.955Z,11.78
2022-10-22T23:48:34.945Z,11.61
